Oakhill, Alabama
Current Conditions -  °F | °C
As of 3:56 PM on Monday 24 Nov 2014 (Local Time) from KPRN Reporting Station
Clear Clear  
Wind Chill: 23°   Ceiling: Unl
Heat Index: 23°   Visibility: 10mi
Dew Point: 11°   Wind: 9mph
Humidity: 45%   Direction: 290°WNW
Pressure: 29.84"   Gusts: NA
Location:  31.9217°N, 87.0814°W
Report Text: KPRN 242156Z AUTO 29008KT 10SM CLR 23/11 A2984 RMK AO2 SLP101 T02330106
Loading
Personal Weather Stations






























Interactive Weather Map New forecast layout! Learn more

10-Day Weather Forecast

Advertisements
Track Severe Weather on mobile